Meath Environmental Platform

Observations for Trim Market St

Time AQI Temp °C Hum % Pres Pa CO μg/m³ H₂S μg/m³ NO μg/m³ NO₂ μg/m³ O₃ μg/m³ SO₂ μg/m³ PM1 μg/m³ PM2.5 μg/m³ PM10 μg/m³
Friday 10 July 2026
08:37 1 28.1 49 56,045 0 0 0 0 0 0 1.43 4.02 4.53
08:31 1 27.7 50 55,777 0.01 0 0 0 0 0 1.43 3.46 3.81
08:30 1 27.7 51 55,871 0.21 0 0 0 0 0 0.71 3.45 6.05
08:29 1 27.6 51 55,945 0 0 0 0 0 0 1.43 4.46 6.05
08:28 1 27.6 51 56,010 0 0 0 0 0 0 2.14 4.96 6.05
08:27 1 27.4 52 56,108 0 0 0 0 0 0 2.14 4.43 6.06
08:26 1 27.3 52 56,265 0 0 0 0 0 0 2.85 5.95 7.53
08:25 1 27.3 52 56,481 0 0 0 0 0 0 1.43 3.9 4.6
08:24 1 27.2 52 56,615 0 0 0 0 0 0 1.43 4.92 7.53
08:22 1 27.1 53 56,741 0 0 0 0 0 0 2.85 5.41 6.8
08:21 1 27.1 53 56,895 0 0 0 0 0 0 2.14 4.37 5.34
08:20 1 27 53 57,119 0 0 0 0 0 0 1.43 4.36 5.35
08:19 1 26.9 53 57,158 0 0 0 0 0 0 2.14 3.84 4.62
08:18 1 26.8 54 57,260 0 0 0 0 0 0 1.43 3.32 3.91
08:16 1 26.6 54 57,433 0 0 0 0 0 0 1.43 3.8 4.65
08:15 1 26.5 55 57,505 0.01 0 0 0 0 0 0.71 3.27 4.65
08:14 1 26.4 55 57,579 0.05 0 0 0 0 0 2.14 4.27 5.38
08:13 1 26.4 55 57,618 0.07 0 0 0 0 0 2.14 4.76 6.1
08:12 1 26.3 56 57,687 0 0 0 0 0 0 2.14 3.72 4.68
08:11 1 26.2 56 57,682 0 0 0 0 0 0 1.43 4.21 5.4